createdAt,value
2019-03-28T00:00:19.432Z,69.7
2019-03-28T00:01:31.473Z,70.3
2019-03-28T00:02:43.628Z,70.1
2019-03-28T00:05:08.020Z,70
2019-03-28T00:06:20.175Z,70.4
2019-03-28T00:07:32.408Z,70
2019-03-28T00:08:44.642Z,69.5
2019-03-28T00:11:09.060Z,69.9
2019-03-28T00:12:21.195Z,70.5
2019-03-28T00:13:33.421Z,70.8
2019-03-28T00:14:45.548Z,69.5
2019-03-28T00:15:57.850Z,70.2
2019-03-28T00:17:09.910Z,69.8
2019-03-28T00:18:22.108Z,70.6
2019-03-28T00:19:34.417Z,69.5
2019-03-28T00:20:46.523Z,70.3
2019-03-28T00:23:10.886Z,69.9
2019-03-28T00:24:23.155Z,70.6
2019-03-28T00:25:35.285Z,71.3
2019-03-28T00:26:47.586Z,72
2019-03-28T00:27:59.665Z,71.2
2019-03-28T00:29:12.037Z,71.1
2019-03-28T00:30:24.076Z,71.3
2019-03-28T00:31:36.264Z,71.7
2019-03-28T00:32:48.554Z,71.5
2019-03-28T00:35:12.938Z,71
2019-03-28T00:36:25.135Z,70.9
2019-03-28T00:37:37.236Z,71.8
2019-03-28T00:38:49.556Z,70.5
2019-03-28T00:40:01.632Z,71.4
2019-03-28T00:41:13.820Z,70.8
2019-03-28T00:42:26.024Z,70.9
2019-03-28T00:43:38.208Z,70.1
2019-03-28T00:44:50.434Z,70.2
2019-03-28T00:47:14.806Z,71.3
2019-03-28T00:48:27.197Z,70.8
2019-03-28T00:49:39.227Z,70.7
2019-03-28T00:50:51.442Z,70.3
2019-03-28T00:52:03.593Z,70.8
2019-03-28T00:53:15.775Z,71.1
2019-03-28T00:54:28.007Z,69.7
2019-03-28T00:55:40.167Z,70.1
2019-03-28T00:56:52.415Z,70.1
2019-03-28T00:59:16.765Z,70.8
2019-03-28T01:00:29.155Z,70.5
2019-03-28T01:01:41.261Z,70.1
2019-03-28T01:02:53.457Z,70.1
2019-03-28T01:04:05.527Z,70.9
2019-03-28T01:05:17.851Z,70.6
2019-03-28T01:06:29.928Z,70.3
2019-03-28T01:07:42.209Z,70.8
2019-03-28T01:08:54.316Z,71
2019-03-28T01:11:18.802Z,72
2019-03-28T01:12:31.111Z,72.2
2019-03-28T01:13:43.121Z,72.4
2019-03-28T01:14:55.313Z,72.7
2019-03-28T01:16:07.482Z,72.6
2019-03-28T01:17:19.677Z,73.2
2019-03-28T01:18:31.882Z,74.2
2019-03-28T01:19:44.229Z,74.3
2019-03-28T01:20:56.411Z,75.2
2019-03-28T01:23:20.755Z,75.3
2019-03-28T01:24:32.980Z,76.2
2019-03-28T01:25:45.054Z,76.5
2019-03-28T01:26:57.274Z,76.5
2019-03-28T01:28:09.469Z,76.4
2019-03-28T01:29:22.880Z,76.2
2019-03-28T01:30:33.827Z,76.5
2019-03-28T01:31:46.078Z,76.8
2019-03-28T01:32:58.224Z,75.7
2019-03-28T01:35:22.614Z,76.8
2019-03-28T01:36:34.976Z,76.1
2019-03-28T01:37:47.030Z,75.9
2019-03-28T01:38:59.199Z,76.7
2019-03-28T01:40:11.418Z,76.1
2019-03-28T01:41:23.590Z,76.8
2019-03-28T01:42:35.781Z,77.1
2019-03-28T01:43:48.106Z,77.2
2019-03-28T01:45:00.272Z,76.3
2019-03-28T01:47:24.656Z,76
2019-03-28T01:48:36.867Z,76.2
2019-03-28T01:49:48.968Z,77.3
2019-03-28T01:51:01.272Z,76.1
2019-03-28T01:52:13.493Z,77.2
2019-03-28T01:53:25.626Z,76.1
2019-03-28T01:54:37.731Z,76.2
2019-03-28T01:55:50.020Z,77.5
2019-03-28T01:57:02.209Z,76.7
2019-03-28T01:59:26.499Z,77.1
2019-03-28T02:00:38.788Z,76.8
2019-03-28T02:03:03.197Z,77.5
2019-03-28T02:04:15.364Z,77.5
2019-03-28T02:05:27.467Z,76.9
2019-03-28T02:06:39.712Z,76.9
2019-03-28T02:07:51.978Z,76.8
2019-03-28T02:09:04.052Z,76.7
2019-03-28T02:11:28.446Z,76.9
2019-03-28T02:12:40.730Z,77.3
2019-03-28T02:13:52.831Z,77.1
2019-03-28T02:15:05.018Z,77.7
2019-03-28T02:16:17.405Z,78.3
2019-03-28T02:17:29.448Z,79
2019-03-28T02:18:41.607Z,77
2019-03-28T02:19:53.823Z,78.8
2019-03-28T02:21:06.099Z,77.9
2019-03-28T02:23:30.406Z,78.3
2019-03-28T02:24:42.662Z,77.4
2019-03-28T02:25:54.780Z,78.4
2019-03-28T02:27:06.958Z,78.7
2019-03-28T02:28:19.146Z,78.8
2019-03-28T02:29:31.418Z,78.2
2019-03-28T02:30:43.650Z,78.9
2019-03-28T02:31:55.899Z,79.5
2019-03-28T02:33:07.919Z,78.6
2019-03-28T02:36:44.819Z,79.2
2019-03-28T02:37:56.914Z,79.1
2019-03-28T02:39:08.906Z,78.3
2019-03-28T02:40:21.096Z,78.4
2019-03-28T02:41:33.380Z,78.7
2019-03-28T02:42:45.741Z,78.8
2019-03-28T02:43:57.688Z,78.4
2019-03-28T02:45:09.960Z,78.4
2019-03-28T02:47:34.244Z,78.4
2019-03-28T02:48:46.548Z,78.7
2019-03-28T02:49:58.640Z,79.1
2019-03-28T02:51:10.844Z,78.9
2019-03-28T02:52:23.133Z,79.5
2019-03-28T02:53:35.315Z,79.6
2019-03-28T02:54:47.915Z,78.8
2019-03-28T02:55:59.803Z,78.8
2019-03-28T02:57:11.878Z,78.8
2019-03-28T02:59:36.287Z,79.4
2019-03-28T03:00:48.464Z,78.8
2019-03-28T03:02:00.565Z,78.5
2019-03-28T03:03:12.856Z,78.6
2019-03-28T03:04:25.030Z,78.6
2019-03-28T03:05:37.161Z,78.1
2019-03-28T03:06:49.564Z,78.4
2019-03-28T03:08:01.642Z,77.9
2019-03-28T03:09:13.745Z,78.2
2019-03-28T03:11:38.134Z,78
2019-03-28T03:12:50.411Z,79.3
2019-03-28T03:14:02.635Z,78.6
2019-03-28T03:15:14.718Z,78.5
2019-03-28T03:16:26.899Z,78.2
2019-03-28T03:17:39.203Z,78.1
2019-03-28T03:18:51.295Z,78
2019-03-28T03:20:03.507Z,77.6
2019-03-28T03:21:15.809Z,78.2
2019-03-28T03:23:40.098Z,78.5
2019-03-28T03:24:52.336Z,77.7
2019-03-28T03:26:04.441Z,78
2019-03-28T03:27:16.679Z,77.4
2019-03-28T03:28:28.954Z,78.4
2019-03-28T03:29:41.038Z,77.8
2019-03-28T03:30:53.288Z,77.5
2019-03-28T03:32:05.576Z,78.3
2019-03-28T03:33:18.548Z,78.1
2019-03-28T03:35:42.054Z,77.9
2019-03-28T03:36:54.368Z,78.8
2019-03-28T03:38:06.573Z,78.6
2019-03-28T03:39:18.615Z,79
2019-03-28T03:40:30.777Z,78.4
2019-03-28T03:41:43.130Z,78.5
2019-03-28T03:44:09.074Z,77.5
2019-03-28T03:45:19.569Z,77.8
2019-03-28T03:47:43.939Z,78
2019-03-28T03:48:56.252Z,78.8
2019-03-28T03:50:08.411Z,78.1
2019-03-28T03:51:20.561Z,78.4
2019-03-28T03:52:32.799Z,77.7
2019-03-28T03:53:44.901Z,77.8
2019-03-28T03:56:09.535Z,77.7
2019-03-28T03:57:21.483Z,78.5
2019-03-28T03:59:45.980Z,79.4
2019-03-28T04:00:58.140Z,78.8
2019-03-28T04:02:10.445Z,78.5
2019-03-28T04:03:22.571Z,78.5
2019-03-28T04:04:34.758Z,78.8
2019-03-28T04:05:46.924Z,78.6
2019-03-28T04:06:59.043Z,78.2
2019-03-28T04:08:11.230Z,79.4
2019-03-28T04:09:23.426Z,78.4
2019-03-28T04:11:48.043Z,78.3
2019-03-28T04:13:00.124Z,78.8
2019-03-28T04:14:12.325Z,78.4
2019-03-28T04:15:24.506Z,78.8
2019-03-28T04:16:36.704Z,78.8
2019-03-28T04:17:48.787Z,78.2
2019-03-28T04:19:00.990Z,78.6
2019-03-28T04:20:13.277Z,78.3
2019-03-28T04:21:25.396Z,78
2019-03-28T04:23:51.778Z,78.6
2019-03-28T04:25:02.075Z,78.4
2019-03-28T04:26:14.241Z,78.7
2019-03-28T04:27:26.498Z,78.7
2019-03-28T04:28:38.710Z,78.5
2019-03-28T04:29:50.723Z,78.8
2019-03-28T04:31:02.946Z,78.9
2019-03-28T04:32:15.131Z,79.7
2019-03-28T04:33:27.311Z,79.2
2019-03-28T04:35:51.703Z,79.2
2019-03-28T04:37:05.652Z,79.7
2019-03-28T04:38:16.084Z,79.2
2019-03-28T04:39:28.276Z,80.2
2019-03-28T04:40:40.541Z,78.9
2019-03-28T04:41:52.664Z,78.5
2019-03-28T04:43:04.856Z,79.5
2019-03-28T04:44:17.072Z,79.2
2019-03-28T04:47:55.355Z,78.6
2019-03-28T04:49:05.958Z,78.5
2019-03-28T04:50:18.012Z,79.4
2019-03-28T04:51:30.397Z,78.6
2019-03-28T04:52:42.401Z,79.2
2019-03-28T04:53:54.593Z,77.9
2019-03-28T04:55:06.808Z,77.4
2019-03-28T04:56:19.026Z,77.9
2019-03-28T04:57:31.347Z,78.4
2019-03-28T04:59:55.684Z,78.1
2019-03-28T05:01:08.008Z,78.3
2019-03-28T05:02:20.040Z,78.3
2019-03-28T05:03:32.239Z,78.1
2019-03-28T05:04:44.364Z,78.2
2019-03-28T05:05:56.547Z,78.9
2019-03-28T05:07:08.780Z,78.3
2019-03-28T05:08:20.933Z,78.5
2019-03-28T05:09:33.118Z,78.1
2019-03-28T05:11:57.498Z,78.6
2019-03-28T05:13:09.782Z,78.7
2019-03-28T05:14:21.893Z,78.3
2019-03-28T05:15:34.162Z,78.2
2019-03-28T05:16:46.517Z,79.6
2019-03-28T05:17:59.931Z,78.7
2019-03-28T05:19:11.519Z,78.5
2019-03-28T05:20:22.866Z,79.3
2019-03-28T05:21:35.061Z,78.6
2019-03-28T05:22:47.285Z,78.9
2019-03-28T05:23:59.494Z,79.2
2019-03-28T05:25:11.708Z,79.5
2019-03-28T05:26:23.947Z,78.8
2019-03-28T05:27:36.042Z,78.6
2019-03-28T05:28:48.220Z,78.7
2019-03-28T05:30:00.463Z,78.7
2019-03-28T05:31:12.602Z,78.9
2019-03-28T05:32:24.794Z,79.3
2019-03-28T05:37:13.669Z,78.1
2019-03-28T05:38:25.850Z,78.3
2019-03-28T05:39:37.957Z,78.1
2019-03-28T05:40:50.237Z,78.3
2019-03-28T05:42:02.434Z,79.3
2019-03-28T05:43:14.551Z,78.4
2019-03-28T05:44:26.735Z,78.3
2019-03-28T05:45:38.927Z,78.2
2019-03-28T05:48:03.399Z,78.7
2019-03-28T05:49:15.508Z,79.1
2019-03-28T05:50:27.710Z,78.9
2019-03-28T05:51:39.991Z,79.8
2019-03-28T05:52:52.090Z,78.6
2019-03-28T05:54:04.282Z,78.7
2019-03-28T05:55:16.519Z,78.3
2019-03-28T05:56:28.687Z,79.8
2019-03-28T05:57:40.947Z,78.3
2019-03-28T06:00:05.274Z,78.6
2019-03-28T06:01:17.479Z,78.6
2019-03-28T06:02:29.642Z,77.9
2019-03-28T06:03:41.867Z,78.5
2019-03-28T06:04:54.045Z,78.8
2019-03-28T06:06:06.461Z,78.5
2019-03-28T06:07:18.413Z,77.7
2019-03-28T06:08:30.616Z,77.8
2019-03-28T06:09:42.811Z,77.9
2019-03-28T06:12:07.224Z,77.9
2019-03-28T06:13:19.588Z,77.5
2019-03-28T06:14:31.606Z,78.4
2019-03-28T06:15:43.776Z,78.6
2019-03-28T06:16:55.968Z,78.4
2019-03-28T06:18:08.340Z,79.2
2019-03-28T06:19:20.346Z,78.4
2019-03-28T06:20:32.696Z,78.9
2019-03-28T06:21:44.799Z,77.6
2019-03-28T06:24:09.172Z,78.5
2019-03-28T06:25:21.352Z,78.4
2019-03-28T06:26:33.508Z,79
2019-03-28T06:27:45.720Z,78.2
2019-03-28T06:28:57.940Z,78.7
2019-03-28T06:30:10.264Z,78.8
2019-03-28T06:31:22.317Z,79.1
2019-03-28T06:32:34.507Z,78.5
2019-03-28T06:33:46.675Z,79.3
2019-03-28T06:36:11.084Z,78.6
2019-03-28T06:38:35.567Z,78.5
2019-03-28T06:39:47.693Z,78.3
2019-03-28T06:42:12.057Z,78.7
2019-03-28T06:43:24.236Z,79.3
2019-03-28T06:44:36.471Z,79.6
2019-03-28T06:45:48.628Z,78.9
2019-03-28T06:48:13.263Z,78.5
2019-03-28T06:49:25.304Z,78.4
2019-03-28T06:50:37.383Z,78.7
2019-03-28T06:51:49.741Z,79.1
2019-03-28T06:53:01.786Z,78.4
2019-03-28T06:54:13.963Z,78.5
2019-03-28T06:55:26.167Z,78.4
2019-03-28T06:56:38.362Z,78.7
2019-03-28T06:57:50.708Z,79.1
2019-03-28T07:00:15.115Z,78.5
2019-03-28T07:01:27.258Z,78.8
2019-03-28T07:02:39.326Z,78.8
2019-03-28T07:03:51.636Z,78.7
2019-03-28T07:05:03.847Z,78.6
2019-03-28T07:06:15.956Z,78.8
2019-03-28T07:07:28.112Z,78
2019-03-28T07:08:40.290Z,78.1
2019-03-28T07:09:52.597Z,78.1
2019-03-28T07:12:17.021Z,78.6
2019-03-28T07:13:29.237Z,78.3
2019-03-28T07:14:41.276Z,78.1
2019-03-28T07:15:53.562Z,78.5
2019-03-28T07:17:05.658Z,78.3
2019-03-28T07:18:17.939Z,78.3
2019-03-28T07:19:30.055Z,78.1
2019-03-28T07:20:42.265Z,78.2
2019-03-28T07:21:54.424Z,77.9
2019-03-28T07:24:18.979Z,77.9
2019-03-28T07:25:31.039Z,77.4
2019-03-28T07:26:43.233Z,77.8
2019-03-28T07:27:55.409Z,77.6
2019-03-28T07:29:07.587Z,77.8
2019-03-28T07:30:19.849Z,78.1
2019-03-28T07:31:32.527Z,77.9
2019-03-28T07:32:44.197Z,77.6
2019-03-28T07:33:56.372Z,77.7
2019-03-28T07:36:20.849Z,77.8
2019-03-28T07:37:33.137Z,77.4
2019-03-28T07:39:57.341Z,78.2
2019-03-28T07:41:09.623Z,77.3
2019-03-28T07:42:21.925Z,77.6
2019-03-28T07:43:33.928Z,77.7
2019-03-28T07:44:46.166Z,77.1
2019-03-28T07:45:58.389Z,76.9
2019-03-28T07:48:22.748Z,76.5
2019-03-28T07:49:34.921Z,76.4
2019-03-28T07:50:47.089Z,77.2
2019-03-28T07:51:59.269Z,75.3
2019-03-28T07:53:11.581Z,76.9
2019-03-28T07:54:23.651Z,76.7
2019-03-28T07:55:35.951Z,76.5
2019-03-28T07:56:48.064Z,76.2
2019-03-28T07:58:00.249Z,76.4
2019-03-28T08:00:24.730Z,76.7
2019-03-28T08:01:36.935Z,75.9
2019-03-28T08:02:49.110Z,76
2019-03-28T08:04:01.364Z,77
2019-03-28T08:05:13.398Z,75.8
2019-03-28T08:06:25.640Z,75.3
2019-03-28T08:07:37.807Z,75.3
2019-03-28T08:08:49.990Z,75.8
2019-03-28T08:10:02.194Z,75.9
2019-03-28T08:12:26.598Z,75.8
2019-03-28T08:13:38.842Z,75.8
2019-03-28T08:14:51.075Z,75.7
2019-03-28T08:16:03.302Z,75.8
2019-03-28T08:17:15.369Z,75.8
2019-03-28T08:18:27.531Z,75.9
2019-03-28T08:19:39.770Z,76.1
2019-03-28T08:20:51.969Z,75.7
2019-03-28T08:22:04.129Z,75.5
2019-03-28T08:24:28.522Z,76.5
2019-03-28T08:25:40.820Z,76.2
2019-03-28T08:26:52.885Z,75.6
2019-03-28T08:28:05.087Z,75.9
2019-03-28T08:29:17.279Z,75.6
2019-03-28T08:30:29.480Z,75.2
2019-03-28T08:31:41.688Z,75.6
2019-03-28T08:32:53.853Z,76.1
2019-03-28T08:34:06.055Z,75.7
2019-03-28T08:36:30.642Z,74.9
2019-03-28T08:37:42.688Z,75.2
2019-03-28T08:38:54.982Z,74.7
2019-03-28T08:40:07.156Z,74.9
2019-03-28T08:41:19.729Z,74.7
2019-03-28T08:42:31.413Z,74.6
2019-03-28T08:43:43.624Z,74.8
2019-03-28T08:44:55.990Z,74.5
2019-03-28T08:46:08.135Z,74.8
2019-03-28T08:48:32.550Z,74.5
2019-03-28T08:49:44.811Z,75.1
2019-03-28T08:50:56.920Z,74.4
2019-03-28T08:52:09.058Z,73.5
2019-03-28T08:53:21.172Z,73.2
2019-03-28T08:54:33.450Z,73.1
2019-03-28T08:55:45.560Z,73.4
2019-03-28T08:56:57.731Z,73.8
2019-03-28T08:58:09.933Z,75.2
2019-03-28T09:00:34.322Z,74.1
2019-03-28T09:01:46.549Z,74.3
2019-03-28T09:02:58.701Z,74
2019-03-28T09:04:10.914Z,73.8
2019-03-28T09:05:23.237Z,73.2
2019-03-28T09:06:35.455Z,74
2019-03-28T09:07:47.560Z,73
2019-03-28T09:08:59.754Z,73
2019-03-28T09:10:11.879Z,73.5
2019-03-28T09:12:36.324Z,73.3
2019-03-28T09:13:48.658Z,72.8
2019-03-28T09:15:00.623Z,72.8
2019-03-28T09:16:13.036Z,72.1
2019-03-28T09:17:25.018Z,72.9
2019-03-28T09:18:37.226Z,73
2019-03-28T09:19:49.411Z,72.2
2019-03-28T09:21:01.611Z,71.9
2019-03-28T09:22:13.894Z,72.2
2019-03-28T09:24:38.186Z,72
2019-03-28T09:25:50.700Z,71.7
2019-03-28T09:27:02.586Z,72.2
2019-03-28T09:28:14.794Z,72.7
2019-03-28T09:29:26.961Z,72.5
2019-03-28T09:30:39.164Z,72.1
2019-03-28T09:31:51.502Z,71.4
2019-03-28T09:33:03.565Z,71
2019-03-28T09:34:15.744Z,71.3
2019-03-28T09:37:52.689Z,72.2
2019-03-28T09:39:04.537Z,72.5
2019-03-28T09:40:16.726Z,71.9
2019-03-28T09:41:29.021Z,72.6
2019-03-28T09:42:41.085Z,72.3
2019-03-28T09:43:53.356Z,72.3
2019-03-28T09:45:05.536Z,72.1
2019-03-28T09:46:18.671Z,73
2019-03-28T09:48:42.046Z,73.2
2019-03-28T09:49:54.254Z,72.4
2019-03-28T09:51:06.525Z,72.8
2019-03-28T09:52:18.653Z,72.5
2019-03-28T09:53:30.831Z,71.5
2019-03-28T09:54:43.117Z,71.5
2019-03-28T09:55:55.247Z,72.5
2019-03-28T09:57:07.425Z,72
2019-03-28T09:58:19.633Z,72.7
2019-03-28T10:00:43.989Z,71.8
2019-03-28T10:01:56.321Z,71.9
2019-03-28T10:03:08.477Z,71.7
2019-03-28T10:04:20.756Z,71.8
2019-03-28T10:05:32.775Z,73
2019-03-28T10:06:46.232Z,72.5
2019-03-28T10:07:57.173Z,72
2019-03-28T10:09:09.358Z,72.2
2019-03-28T10:10:21.580Z,71.7
2019-03-28T10:12:46.088Z,71.9
2019-03-28T10:13:58.127Z,72.2
2019-03-28T10:15:10.339Z,71.5
2019-03-28T10:16:22.576Z,72.2
2019-03-28T10:17:34.698Z,71.5
2019-03-28T10:18:46.955Z,71.8
2019-03-28T10:19:59.143Z,70.2
2019-03-28T10:21:11.310Z,70.8
2019-03-28T10:22:23.601Z,70.7
2019-03-28T10:24:47.858Z,70.2
2019-03-28T10:26:00.186Z,69.9
2019-03-28T10:27:12.380Z,70.5
2019-03-28T10:28:24.601Z,70.7
2019-03-28T10:29:36.794Z,70.7
2019-03-28T10:30:48.871Z,70.5
2019-03-28T10:32:01.027Z,70.4
2019-03-28T10:33:13.332Z,68.7
2019-03-28T10:34:25.420Z,69
2019-03-28T10:36:49.799Z,70.2
2019-03-28T10:38:02.009Z,70.6
2019-03-28T10:39:14.291Z,70.1
2019-03-28T10:40:26.381Z,69.8
2019-03-28T10:41:38.596Z,69.1
2019-03-28T10:42:50.775Z,69.2
2019-03-28T10:44:03.131Z,68.7
2019-03-28T10:45:15.284Z,68.1
2019-03-28T10:46:27.358Z,67.7
2019-03-28T10:48:51.752Z,67.8
2019-03-28T10:50:03.973Z,68.1
2019-03-28T10:51:16.138Z,67.8
2019-03-28T10:52:28.334Z,67.5
2019-03-28T10:53:40.642Z,68.3
2019-03-28T10:54:52.824Z,67.2
2019-03-28T10:56:04.929Z,67.4
2019-03-28T10:57:17.301Z,67.8
2019-03-28T10:58:29.307Z,66.9
2019-03-28T11:00:53.785Z,66.8
2019-03-28T11:02:06.188Z,67.1
2019-03-28T11:03:18.051Z,67.5
2019-03-28T11:04:30.386Z,66.1
2019-03-28T11:05:42.448Z,66
2019-03-28T11:06:55.185Z,67.1
2019-03-28T11:08:07.129Z,67
2019-03-28T11:09:19.064Z,67.2
2019-03-28T11:10:31.256Z,66.7
2019-03-28T11:12:55.606Z,66.4
2019-03-28T11:14:07.915Z,65.6
2019-03-28T11:15:20.057Z,65.8
2019-03-28T11:16:32.191Z,66.3
2019-03-28T11:18:56.582Z,65.8
2019-03-28T11:20:08.779Z,65.6
2019-03-28T11:21:21.002Z,64.4
2019-03-28T11:24:57.656Z,64.3
2019-03-28T11:26:09.750Z,62.9
2019-03-28T11:27:22.210Z,62.7
2019-03-28T11:28:34.132Z,62.3
2019-03-28T11:29:46.352Z,60.3
2019-03-28T11:30:58.522Z,61.2
2019-03-28T11:32:10.705Z,61.4
2019-03-28T11:33:23.084Z,61.4
2019-03-28T11:34:35.359Z,62.1
2019-03-28T11:36:59.481Z,60.1
2019-03-28T11:38:11.688Z,60
2019-03-28T11:39:24.149Z,60
2019-03-28T11:40:36.168Z,59.1
2019-03-28T11:41:48.327Z,59.4
2019-03-28T11:43:00.467Z,60.2
2019-03-28T11:44:12.657Z,56.5
2019-03-28T11:45:24.869Z,57.2
2019-03-28T11:46:37.048Z,58.4
2019-03-28T11:49:01.434Z,57.8
2019-03-28T11:50:13.818Z,58.6
2019-03-28T11:51:25.916Z,58.5
2019-03-28T11:52:38.043Z,58
2019-03-28T11:53:50.354Z,58.6
2019-03-28T11:55:02.425Z,57.9
2019-03-28T11:56:14.612Z,57.1
2019-03-28T11:57:26.913Z,57.5
2019-03-28T11:58:38.989Z,57
2019-03-28T11:59:51.189Z,59.2
2019-03-28T12:01:05.789Z,57.9
2019-03-28T12:02:15.582Z,57.7
2019-03-28T12:03:27.769Z,59.1
2019-03-28T12:04:39.990Z,57.4
2019-03-28T12:05:52.213Z,57.4
2019-03-28T12:08:16.554Z,57.2
2019-03-28T12:09:28.834Z,57.4
2019-03-28T12:10:40.956Z,59.9
2019-03-28T12:13:05.423Z,58.2
2019-03-28T12:14:17.594Z,57.6
2019-03-28T12:15:29.726Z,56.6
2019-03-28T12:16:41.996Z,59.5
2019-03-28T12:17:54.207Z,55.5
2019-03-28T12:19:06.351Z,58
2019-03-28T12:20:18.522Z,57
2019-03-28T12:21:30.708Z,58.8
2019-03-28T12:22:43.003Z,57.1
2019-03-28T12:25:07.376Z,61.2
2019-03-28T12:26:19.495Z,58.9
2019-03-28T12:27:31.719Z,56.5
2019-03-28T12:28:43.908Z,59.7
2019-03-28T12:29:56.068Z,58
2019-03-28T12:31:08.275Z,57.5
2019-03-28T12:32:20.541Z,59.7
2019-03-28T12:33:32.651Z,58.6
2019-03-28T12:34:44.905Z,58.2
2019-03-28T12:35:57.285Z,57.9
2019-03-28T12:37:09.243Z,56.9
2019-03-28T12:38:21.537Z,59.2
2019-03-28T12:39:33.644Z,57.4
2019-03-28T12:40:45.932Z,59.9
2019-03-28T12:41:58.139Z,58.1
2019-03-28T12:43:10.455Z,58.7
2019-03-28T12:44:22.488Z,56.6
2019-03-28T12:45:34.682Z,58.1
2019-03-28T12:46:46.878Z,58.9
2019-03-28T12:49:11.182Z,57.1
2019-03-28T12:50:23.378Z,57.6
2019-03-28T12:51:35.659Z,56.5
2019-03-28T12:52:47.780Z,60.8
2019-03-28T12:53:59.993Z,58.2
2019-03-28T12:55:12.206Z,58.2
2019-03-28T12:56:24.501Z,58.2
2019-03-28T12:57:36.661Z,58.5
2019-03-28T12:58:48.769Z,60.1
2019-03-28T13:01:13.151Z,57.6
2019-03-28T13:02:25.469Z,58.2
2019-03-28T13:03:37.605Z,58.4
2019-03-28T13:04:49.732Z,56.8
2019-03-28T13:06:01.918Z,57.3
2019-03-28T13:07:18.486Z,59.3
2019-03-28T13:08:30.510Z,58.1
2019-03-28T13:09:38.619Z,58.6
2019-03-28T13:10:50.777Z,58.2
2019-03-28T13:14:27.531Z,59.3
2019-03-28T13:15:39.600Z,57.6
2019-03-28T13:16:51.698Z,57.4
2019-03-28T13:19:16.055Z,59.4
2019-03-28T13:20:28.246Z,58.1
2019-03-28T13:21:40.457Z,58.8
2019-03-28T13:22:52.732Z,56.8
2019-03-28T13:25:17.172Z,56.4
2019-03-28T13:26:29.243Z,58.5
2019-03-28T13:28:53.630Z,57.5
2019-03-28T13:30:05.911Z,57.3
2019-03-28T13:31:18.103Z,56.9
2019-03-28T13:32:30.328Z,56.9
2019-03-28T13:33:42.535Z,58.4
2019-03-28T13:34:54.679Z,58.3
2019-03-28T13:37:18.989Z,58.4
2019-03-28T13:38:31.189Z,58.3
2019-03-28T13:40:55.570Z,56.5
2019-03-28T13:42:07.868Z,54.3
2019-03-28T13:43:19.949Z,54.9
2019-03-28T13:44:32.227Z,57.4
2019-03-28T13:45:44.461Z,54.4
2019-03-28T13:46:56.602Z,56.1
2019-03-28T13:49:21.008Z,53.9
2019-03-28T13:50:33.121Z,54.7
2019-03-28T13:51:45.331Z,56.9
2019-03-28T13:52:57.584Z,55.9
2019-03-28T13:54:09.733Z,57.2
2019-03-28T13:55:21.906Z,56.6
2019-03-28T13:56:34.092Z,58.1
2019-03-28T13:57:46.348Z,57.8
2019-03-28T13:58:58.499Z,57.5
2019-03-28T14:01:22.966Z,55.8
2019-03-28T14:02:35.073Z,57.3
2019-03-28T14:03:47.266Z,57
2019-03-28T14:04:59.463Z,55.3
2019-03-28T14:06:11.681Z,55.3
2019-03-28T14:07:23.856Z,55.6
2019-03-28T14:09:48.248Z,53.9
2019-03-28T14:11:00.465Z,54.7
2019-03-28T14:13:24.915Z,56.5
2019-03-28T14:14:37.024Z,57
2019-03-28T14:15:49.291Z,55.5
2019-03-28T14:17:01.420Z,54.9
2019-03-28T14:18:13.622Z,57.6
2019-03-28T14:19:25.838Z,57.6
2019-03-28T14:20:38.024Z,57.4
2019-03-28T14:21:50.328Z,56.7
2019-03-28T14:23:02.411Z,58.7
2019-03-28T14:25:26.872Z,56.7
2019-03-28T14:26:38.981Z,56.7
2019-03-28T14:27:51.164Z,55.5
2019-03-28T14:29:03.363Z,53.5
2019-03-28T14:30:15.572Z,55
2019-03-28T14:31:27.759Z,57
2019-03-28T14:32:39.948Z,57.1
2019-03-28T14:33:52.134Z,57.6
2019-03-28T14:35:04.444Z,56.5
2019-03-28T14:36:16.553Z,54.9
2019-03-28T14:37:28.736Z,56.6
2019-03-28T14:38:41.041Z,56.2
2019-03-28T14:39:53.220Z,54.2
2019-03-28T14:41:05.536Z,56.3
2019-03-28T14:42:17.537Z,52.5
2019-03-28T14:43:29.811Z,54.9
2019-03-28T14:44:41.895Z,54.3
2019-03-28T14:45:54.092Z,55.4
2019-03-28T14:47:06.335Z,53.7
2019-03-28T14:49:30.752Z,55.8
2019-03-28T14:50:42.868Z,58.2
2019-03-28T14:51:55.162Z,56.4
2019-03-28T14:53:07.336Z,55.9
2019-03-28T14:55:31.661Z,53.8
2019-03-28T14:56:43.975Z,53.9
2019-03-28T14:57:56.131Z,56.3
2019-03-28T14:59:08.234Z,55.4
2019-03-28T15:01:32.844Z,55.2
2019-03-28T15:02:44.848Z,55
2019-03-28T15:05:09.232Z,55.4
2019-03-28T15:07:33.604Z,55.8
2019-03-28T15:08:45.874Z,55.9
2019-03-28T15:09:58.108Z,55.2
2019-03-28T15:11:10.176Z,55.2
2019-03-28T15:13:34.571Z,55.5
2019-03-28T15:14:46.902Z,54.3
2019-03-28T15:15:58.969Z,55.6
2019-03-28T15:17:11.219Z,56
2019-03-28T15:18:23.368Z,53.6
2019-03-28T15:19:35.581Z,53.3
2019-03-28T15:20:47.840Z,52.7
2019-03-28T15:22:04.136Z,54.5
2019-03-28T15:23:15.505Z,54.5
2019-03-28T15:25:36.559Z,54.7
2019-03-28T15:26:48.826Z,55.5
2019-03-28T15:28:00.907Z,56.3
2019-03-28T15:29:13.301Z,55.8
2019-03-28T15:30:25.294Z,55.4
2019-03-28T15:31:37.554Z,54.8
2019-03-28T15:32:49.782Z,57.4
2019-03-28T15:34:02.007Z,55.7
2019-03-28T15:35:14.641Z,54.5
2019-03-28T15:36:26.279Z,56.1
2019-03-28T15:37:38.558Z,57
2019-03-28T15:38:50.738Z,56.6
2019-03-28T15:40:02.861Z,55.8
2019-03-28T15:41:15.118Z,55.3
2019-03-28T15:42:27.253Z,55.3
2019-03-28T15:43:39.448Z,57.3
2019-03-28T15:44:51.655Z,56.1
2019-03-28T15:46:03.836Z,58.6
2019-03-28T15:47:16.190Z,57.8
2019-03-28T15:49:40.474Z,58.7
2019-03-28T15:50:52.609Z,58.7
2019-03-28T15:52:04.850Z,57
2019-03-28T15:53:17.056Z,57.7
2019-03-28T15:54:29.281Z,57.9
2019-03-28T15:55:41.459Z,58.3
2019-03-28T15:56:53.648Z,57.4
2019-03-28T15:58:06.313Z,57.6
2019-03-28T16:01:42.373Z,57.7
2019-03-28T16:02:54.710Z,59.9
2019-03-28T16:05:18.947Z,57.6
2019-03-28T16:07:43.357Z,59.5
2019-03-28T16:08:55.570Z,56.9
2019-03-28T16:10:07.738Z,56.8
2019-03-28T16:11:19.946Z,58.2
2019-03-28T16:14:56.521Z,58.5
2019-03-28T16:16:08.717Z,58.5
2019-03-28T16:17:21.053Z,58.9
2019-03-28T16:18:33.105Z,59.4
2019-03-28T16:19:45.313Z,59.6
2019-03-28T16:20:57.486Z,60
2019-03-28T16:22:09.768Z,57.8
2019-03-28T16:23:21.938Z,59.8
2019-03-28T16:25:46.336Z,59.4
2019-03-28T16:26:58.473Z,61.1
2019-03-28T16:28:10.674Z,60.3
2019-03-28T16:29:22.854Z,60.2
2019-03-28T16:30:35.052Z,60
2019-03-28T16:31:47.264Z,59.9
2019-03-28T16:34:11.681Z,60
2019-03-28T16:35:23.845Z,57.3
2019-03-28T16:36:36.092Z,57.7
2019-03-28T16:37:48.252Z,58.4
2019-03-28T16:39:03.281Z,60.6
2019-03-28T16:40:15.612Z,58
2019-03-28T16:41:24.836Z,57.2
2019-03-28T16:42:37.005Z,61
2019-03-28T16:43:49.220Z,59.4
2019-03-28T16:45:01.416Z,59.5
2019-03-28T16:46:13.634Z,58.5
2019-03-28T16:47:25.786Z,59.4
2019-03-28T16:49:50.270Z,57.1
2019-03-28T16:51:02.454Z,59.2
2019-03-28T16:52:14.571Z,58.8
2019-03-28T16:53:26.764Z,60.2
2019-03-28T16:54:39.075Z,59.2
2019-03-28T16:55:51.223Z,59.2
2019-03-28T16:57:03.432Z,58.1
2019-03-28T16:58:15.618Z,56.3
2019-03-28T16:59:27.766Z,57.5
2019-03-28T17:01:52.211Z,58.4
2019-03-28T17:03:04.347Z,59.8
2019-03-28T17:04:16.611Z,58.8
2019-03-28T17:05:28.782Z,58.2
2019-03-28T17:06:42.758Z,59.5
2019-03-28T17:07:53.240Z,57.7
2019-03-28T17:09:05.425Z,58.5
2019-03-28T17:10:17.576Z,57.4
2019-03-28T17:11:29.888Z,58
2019-03-28T17:13:54.128Z,57.8
2019-03-28T17:15:06.383Z,59.4
2019-03-28T17:16:18.612Z,59.1
2019-03-28T17:17:30.757Z,59.6
2019-03-28T17:18:42.963Z,58.2
2019-03-28T17:19:55.081Z,60.9
2019-03-28T17:21:07.269Z,59.7
2019-03-28T17:22:19.474Z,58.7
2019-03-28T17:23:31.768Z,59.2
2019-03-28T17:24:43.847Z,60.1
2019-03-28T17:25:56.120Z,59
2019-03-28T17:27:08.271Z,59.5
2019-03-28T17:28:20.518Z,59
2019-03-28T17:29:32.665Z,59.6
2019-03-28T17:30:44.846Z,59.1
2019-03-28T17:31:57.154Z,58
2019-03-28T17:33:09.233Z,58
2019-03-28T17:34:21.506Z,58.1
2019-03-28T17:35:33.606Z,58.2
2019-03-28T17:39:10.284Z,57.8
2019-03-28T17:40:22.415Z,57.9
2019-03-28T17:41:34.637Z,60.1
2019-03-28T17:42:46.881Z,59.2
2019-03-28T17:43:59.067Z,61.6
2019-03-28T17:45:11.389Z,58.8
2019-03-28T17:46:23.408Z,60.2
2019-03-28T17:47:35.584Z,59.1
2019-03-28T17:48:47.765Z,59.8
2019-03-28T17:49:59.959Z,60.3
2019-03-28T17:51:12.177Z,58.6
2019-03-28T17:52:24.425Z,58.9
2019-03-28T17:53:36.656Z,59.6
2019-03-28T17:54:48.732Z,62.3
2019-03-28T17:56:01.055Z,59.7
2019-03-28T17:57:13.138Z,59.3
2019-03-28T17:58:25.346Z,60.4
2019-03-28T17:59:37.655Z,58.7
2019-03-28T18:02:01.936Z,60
2019-03-28T18:03:14.190Z,60.5
2019-03-28T18:04:26.346Z,60.4
2019-03-28T18:05:38.618Z,60
2019-03-28T18:06:50.780Z,60
2019-03-28T18:08:02.998Z,59.7
2019-03-28T18:09:15.167Z,60.8
2019-03-28T18:10:27.402Z,59.5
2019-03-28T18:11:39.496Z,60
2019-03-28T18:14:03.958Z,59.5
2019-03-28T18:15:16.206Z,60.1
2019-03-28T18:16:28.282Z,61.9
2019-03-28T18:17:40.456Z,61.1
2019-03-28T18:18:52.653Z,59.5
2019-03-28T18:20:04.890Z,60.5